createdAt,value
2022-07-30T00:06:07.895Z,101778.81
2022-07-30T00:11:11.990Z,101859.28
2022-07-30T00:16:16.248Z,101844.34
2022-07-30T00:21:20.324Z,101844.63
2022-07-30T00:26:39.762Z,101835.75
2022-07-30T00:31:43.940Z,101822.59
2022-07-30T00:36:46.766Z,101828.53
2022-07-30T00:41:57.153Z,101827.59
2022-07-30T00:47:01.868Z,101796.16
2022-07-30T00:52:32.971Z,101823.16
2022-07-30T00:57:36.336Z,101820.94
2022-07-30T01:02:40.809Z,101817.16
2022-07-30T01:07:43.815Z,101809.28
2022-07-30T01:12:46.916Z,101807.44
2022-07-30T01:17:53.128Z,101811.88
2022-07-30T01:23:00.855Z,101816.22
2022-07-30T01:28:10.449Z,101812.88
2022-07-30T01:33:15.907Z,101817.50
2022-07-30T01:38:23.023Z,101813.53
2022-07-30T01:43:28.063Z,101812.31
2022-07-30T01:48:31.466Z,101825.75
2022-07-30T01:53:38.001Z,101823.56
2022-07-30T01:58:43.379Z,101830.59
2022-07-30T02:03:56.994Z,101812.38
2022-07-30T02:14:32.378Z,101823.88
2022-07-30T02:19:41.933Z,101818.72
2022-07-30T02:24:45.418Z,101834.19
2022-07-30T02:29:49.967Z,101835.50
2022-07-30T02:34:55.002Z,101838.28
2022-07-30T02:40:05.015Z,101829.34
2022-07-30T02:45:10.540Z,101846.41
2022-07-30T02:50:14.013Z,101818.41
2022-07-30T02:55:17.378Z,101827.13
2022-07-30T03:00:22.398Z,101831.50
2022-07-30T03:05:27.321Z,101822.53
2022-07-30T03:10:31.877Z,101823.28
2022-07-30T03:15:39.479Z,101819.38
2022-07-30T03:20:45.977Z,101806.94
2022-07-30T03:25:55.798Z,101808.66
2022-07-30T03:31:00.185Z,101812.22
2022-07-30T03:36:03.950Z,101816.25
2022-07-30T03:41:07.923Z,101820.88
2022-07-30T03:46:13.295Z,101831.66
2022-07-30T03:51:19.549Z,101826.50
2022-07-30T03:56:22.748Z,101824.31
2022-07-30T04:01:47.221Z,101832.41
2022-07-30T04:07:03.970Z,101827.78
2022-07-30T04:12:07.530Z,101822.78
2022-07-30T04:17:14.828Z,101839.84
2022-07-30T04:22:21.397Z,101841.00
2022-07-30T04:27:25.361Z,101844.56
2022-07-30T04:32:29.784Z,101842.66
2022-07-30T04:38:10.476Z,101836.53
2022-07-30T04:43:13.435Z,101841.94
2022-07-30T04:48:17.681Z,101846.09
2022-07-30T04:53:39.382Z,101855.75
2022-07-30T04:58:45.000Z,101852.59
2022-07-30T05:03:50.880Z,101850.97
2022-07-30T05:08:53.980Z,101855.97
2022-07-30T05:13:57.294Z,101833.31
2022-07-30T05:19:02.431Z,101849.25
2022-07-30T05:24:11.408Z,101856.75
2022-07-30T05:29:20.023Z,101861.78
2022-07-30T05:34:50.097Z,101875.88
2022-07-30T05:40:02.938Z,101880.72
2022-07-30T05:45:26.668Z,101885.53
2022-07-30T05:50:31.233Z,101901.81
2022-07-30T05:55:35.451Z,101889.56
2022-07-30T06:00:57.328Z,101903.28
2022-07-30T06:06:06.062Z,101900.16
2022-07-30T06:11:09.917Z,101901.25
2022-07-30T06:16:15.539Z,101903.97
2022-07-30T06:21:20.527Z,101896.16
2022-07-30T06:26:40.646Z,101898.31
2022-07-30T06:31:44.181Z,101898.91
2022-07-30T06:36:49.888Z,101892.25
2022-07-30T06:41:55.990Z,101895.19
2022-07-30T06:47:07.416Z,101891.66
2022-07-30T06:52:18.560Z,101876.09
2022-07-30T06:57:25.904Z,101874.69
2022-07-30T07:02:29.244Z,101883.38
2022-07-30T07:07:58.252Z,101869.56
2022-07-30T07:13:03.099Z,101869.94
2022-07-30T07:18:06.718Z,101874.56
2022-07-30T07:23:16.345Z,101865.53
2022-07-30T07:28:23.598Z,101861.00
2022-07-30T07:33:36.985Z,101874.75
2022-07-30T07:38:41.260Z,101875.25
2022-07-30T07:43:44.303Z,101880.69
2022-07-30T07:48:51.722Z,101878.38
2022-07-30T07:54:20.303Z,101884.00
2022-07-30T07:59:30.993Z,101873.03
2022-07-30T08:04:46.518Z,101870.19
2022-07-30T08:10:09.590Z,101881.97
2022-07-30T08:15:32.512Z,101872.06
2022-07-30T08:21:05.419Z,101870.72
2022-07-30T08:26:11.799Z,101870.56
2022-07-30T08:31:14.750Z,101879.75
2022-07-30T08:36:18.944Z,101885.47
2022-07-30T08:41:28.241Z,101880.50
2022-07-30T08:46:33.066Z,101887.09
2022-07-30T08:52:02.416Z,101885.47
2022-07-30T08:57:18.032Z,101898.19
2022-07-30T09:02:27.871Z,101897.25
2022-07-30T09:07:41.009Z,101913.78
2022-07-30T09:12:50.607Z,101913.69
2022-07-30T09:17:57.082Z,101899.28
2022-07-30T09:23:03.888Z,101902.03
2022-07-30T09:28:32.176Z,101905.94
2022-07-30T09:33:50.033Z,101899.00
2022-07-30T09:39:11.560Z,101888.50
2022-07-30T09:44:41.258Z,101896.16
2022-07-30T09:49:47.119Z,101897.13
2022-07-30T10:00:23.492Z,101883.34
2022-07-30T10:05:50.669Z,101886.84
2022-07-30T10:10:56.235Z,101878.72
2022-07-30T10:16:00.637Z,101887.38
2022-07-30T10:21:10.589Z,101880.31
2022-07-30T10:26:43.155Z,101885.69
2022-07-30T10:32:06.913Z,101887.28
2022-07-30T10:37:13.324Z,101899.59
2022-07-30T10:42:25.866Z,101889.47
2022-07-30T10:47:33.430Z,101897.63
2022-07-30T10:52:46.184Z,101904.19
2022-07-30T10:57:59.653Z,101894.38
2022-07-30T11:03:22.050Z,101898.19
2022-07-30T11:08:42.971Z,101898.75
2022-07-30T11:13:57.380Z,101899.69
2022-07-30T11:19:56.325Z,101898.84
2022-07-30T11:24:45.642Z,101887.50
2022-07-30T11:29:51.373Z,101884.84
2022-07-30T11:35:13.350Z,101883.75
2022-07-30T11:40:16.296Z,101884.38
2022-07-30T11:45:30.415Z,101888.59
2022-07-30T11:50:35.784Z,101892.16
2022-07-30T11:55:39.946Z,101894.69
2022-07-30T12:00:47.779Z,101902.41
2022-07-30T12:05:53.485Z,101899.63
2022-07-30T12:11:01.840Z,101909.78
2022-07-30T12:16:10.559Z,101910.22
2022-07-30T12:21:16.185Z,101903.25
2022-07-30T12:26:22.820Z,101903.53
2022-07-30T12:31:25.794Z,101916.88
2022-07-30T12:36:31.837Z,101907.78
2022-07-30T12:41:43.786Z,101907.22
2022-07-30T12:46:46.626Z,101904.44
2022-07-30T12:51:57.484Z,101901.50
2022-07-30T12:57:05.786Z,101898.88
2022-07-30T13:02:08.926Z,101882.31
2022-07-30T13:07:19.554Z,101907.41
2022-07-30T13:12:22.350Z,101899.69
2022-07-30T13:17:33.896Z,101894.13
2022-07-30T13:22:41.740Z,101901.84
2022-07-30T13:27:44.758Z,101897.34
2022-07-30T13:32:47.535Z,101903.38
2022-07-30T13:37:51.644Z,101898.63
2022-07-30T13:42:54.654Z,101900.59
2022-07-30T13:47:58.912Z,101896.34
2022-07-30T13:53:03.130Z,101880.50
2022-07-30T13:58:09.564Z,101881.69
2022-07-30T14:03:12.769Z,101865.72
2022-07-30T14:08:17.022Z,101867.44
2022-07-30T14:13:21.134Z,101866.63
2022-07-30T14:18:24.352Z,101861.06
2022-07-30T14:23:28.545Z,101856.75
2022-07-30T14:28:31.386Z,101864.03
2022-07-30T14:33:34.260Z,101856.44
2022-07-30T14:38:39.893Z,101852.81
2022-07-30T14:43:42.838Z,101860.44
2022-07-30T14:48:47.571Z,101857.13
2022-07-30T14:53:51.883Z,101830.22
2022-07-30T14:58:55.073Z,101848.72
2022-07-30T15:03:58.594Z,101855.47
2022-07-30T15:09:02.769Z,101858.25
2022-07-30T15:14:05.526Z,101848.13
2022-07-30T15:19:13.948Z,101843.72
2022-07-30T15:24:18.131Z,101853.41
2022-07-30T15:29:24.079Z,101847.34
2022-07-30T15:34:27.429Z,101825.91
2022-07-30T15:39:33.064Z,101851.69
2022-07-30T15:44:36.003Z,101787.63
2022-07-30T15:49:41.319Z,101851.13
2022-07-30T15:54:45.792Z,101854.38
2022-07-30T15:59:48.673Z,101851.78
2022-07-30T16:04:51.770Z,101848.34
2022-07-30T16:10:02.257Z,101855.66
2022-07-30T16:15:05.809Z,101859.41
2022-07-30T16:20:10.197Z,101861.44
2022-07-30T16:25:14.327Z,101865.34
2022-07-30T16:30:17.136Z,101853.28
2022-07-30T16:35:19.985Z,101843.34
2022-07-30T16:40:24.272Z,101855.81
2022-07-30T16:45:28.842Z,101843.34
2022-07-30T16:50:31.962Z,101826.75
2022-07-30T16:55:36.095Z,101830.94
2022-07-30T17:00:39.346Z,101823.03
2022-07-30T17:05:45.248Z,101824.34
2022-07-30T17:10:52.338Z,101817.16
2022-07-30T17:15:55.237Z,101806.31
2022-07-30T17:20:58.035Z,101795.69
2022-07-30T17:26:02.253Z,101799.56
2022-07-30T17:31:06.180Z,101790.50
2022-07-30T17:36:09.413Z,101779.06
2022-07-30T17:41:13.862Z,101772.97
2022-07-30T17:46:17.236Z,101775.22
2022-07-30T17:51:20.139Z,101775.78
2022-07-30T17:56:26.903Z,101771.09
2022-07-30T18:01:32.564Z,101764.56
2022-07-30T18:06:36.064Z,101753.34
2022-07-30T18:11:40.371Z,101761.00
2022-07-30T18:16:45.246Z,101759.56
2022-07-30T18:21:48.039Z,101767.00
2022-07-30T18:26:52.289Z,101767.56
2022-07-30T18:31:55.021Z,101762.09
2022-07-30T18:36:58.885Z,101764.78
2022-07-30T18:42:03.698Z,101762.47
2022-07-30T18:47:07.021Z,101750.50
2022-07-30T18:52:09.957Z,101767.16
2022-07-30T18:57:14.682Z,101763.06
2022-07-30T19:02:20.570Z,101770.22
2022-07-30T19:07:24.370Z,101769.16
2022-07-30T19:12:32.801Z,101771.63
2022-07-30T19:17:46.081Z,101773.34
2022-07-30T19:22:49.779Z,101769.81
2022-07-30T19:27:53.928Z,101772.69
2022-07-30T19:33:02.746Z,101736.25
2022-07-30T19:43:30.900Z,101784.06
2022-07-30T19:48:37.394Z,101786.16
2022-07-30T19:53:44.560Z,101771.56
2022-07-30T19:58:49.647Z,101776.94
2022-07-30T20:03:55.862Z,101782.63
2022-07-30T20:09:04.504Z,101780.34
2022-07-30T20:14:08.834Z,101766.16
2022-07-30T20:19:15.744Z,101791.13
2022-07-30T20:24:18.872Z,101784.94
2022-07-30T20:29:23.189Z,101795.81
2022-07-30T20:34:27.545Z,101800.56
2022-07-30T20:39:30.597Z,101809.63
2022-07-30T20:44:35.213Z,101802.91
2022-07-30T20:49:38.969Z,101805.94
2022-07-30T20:54:45.335Z,101798.91
2022-07-30T20:59:49.631Z,101785.47
2022-07-30T21:04:56.709Z,101804.50
2022-07-30T21:10:02.498Z,101804.69
2022-07-30T21:15:15.688Z,101787.06
2022-07-30T21:20:28.006Z,101795.66
2022-07-30T21:25:32.954Z,101773.91
2022-07-30T21:30:37.603Z,101792.88
2022-07-30T21:35:41.864Z,101787.81
2022-07-30T21:40:45.775Z,101788.50
2022-07-30T21:45:54.893Z,101788.41
2022-07-30T21:50:58.509Z,101785.56
2022-07-30T21:56:01.654Z,101782.38
2022-07-30T22:06:30.507Z,101781.53
2022-07-30T22:11:33.908Z,101788.75
2022-07-30T22:16:47.103Z,101782.53
2022-07-30T22:21:50.831Z,101778.91
2022-07-30T22:26:54.051Z,101775.59
2022-07-30T22:31:58.585Z,101772.97
2022-07-30T22:37:02.583Z,101774.00
2022-07-30T22:42:06.904Z,101756.09
2022-07-30T22:47:21.094Z,101765.53
2022-07-30T22:52:27.293Z,101761.09
2022-07-30T22:57:37.992Z,101751.81
2022-07-30T23:02:43.593Z,101746.94
2022-07-30T23:07:52.467Z,101738.28
2022-07-30T23:12:31.871Z,101777.94
2022-07-30T23:12:56.446Z,101736.72
2022-07-30T23:18:02.793Z,101731.59
2022-07-30T23:23:05.576Z,101728.84
2022-07-30T23:28:08.382Z,101737.66
2022-07-30T23:33:12.524Z,101732.34
2022-07-30T23:38:15.326Z,101717.66
2022-07-30T23:43:18.730Z,101728.59
2022-07-30T23:48:22.948Z,101721.81
2022-07-30T23:53:26.609Z,101718.72
2022-07-30T23:58:30.223Z,101718.03
